createdAt,value
2023-03-25T00:01:14.152Z,10.20
2023-03-25T00:03:42.035Z,7.60
2023-03-25T00:06:09.927Z,10.20
2023-03-25T00:08:36.819Z,8.90
2023-03-25T00:11:04.537Z,11.10
2023-03-25T00:13:34.271Z,7.50
2023-03-25T00:16:01.801Z,10.50
2023-03-25T00:18:29.966Z,11.10
2023-03-25T00:20:57.647Z,10.90
2023-03-25T00:23:24.344Z,10.30
2023-03-25T00:25:52.938Z,7.20
2023-03-25T00:28:19.800Z,10.50
2023-03-25T00:30:46.641Z,7.10
2023-03-25T00:33:18.161Z,7.10
2023-03-25T00:35:45.048Z,9.80
2023-03-25T00:38:12.286Z,10.00
2023-03-25T00:40:38.973Z,7.00
2023-03-25T00:43:06.558Z,8.60
2023-03-25T00:45:33.832Z,9.80
2023-03-25T00:48:00.719Z,9.60
2023-03-25T00:50:27.474Z,9.10
2023-03-25T00:52:54.717Z,6.90
2023-03-25T00:55:21.804Z,10.00
2023-03-25T00:57:48.837Z,8.90
2023-03-25T01:00:17.011Z,8.30
2023-03-25T01:02:44.083Z,6.70
2023-03-25T01:05:11.483Z,6.80
2023-03-25T01:07:38.978Z,6.80
2023-03-25T01:10:06.114Z,9.40
2023-03-25T01:12:32.893Z,6.70
2023-03-25T01:14:59.555Z,6.70
2023-03-25T01:17:26.313Z,10.20
2023-03-25T01:19:53.051Z,9.90
2023-03-25T01:22:19.830Z,9.80
2023-03-25T01:24:46.546Z,7.40
2023-03-25T01:27:13.267Z,9.60
2023-03-25T01:29:39.977Z,8.80
2023-03-25T01:32:06.681Z,6.80
2023-03-25T01:34:33.605Z,9.10
2023-03-25T01:37:01.139Z,9.70
2023-03-25T01:39:27.897Z,10.30
2023-03-25T01:41:55.374Z,9.00
2023-03-25T01:44:22.358Z,7.70
2023-03-25T01:46:53.380Z,8.80
2023-03-25T01:49:40.832Z,9.30
2023-03-25T01:52:11.088Z,6.90
2023-03-25T01:54:38.982Z,6.80
2023-03-25T01:57:06.921Z,8.40
2023-03-25T01:59:33.772Z,6.90
2023-03-25T02:02:02.671Z,6.90
2023-03-25T02:04:35.012Z,8.90
2023-03-25T02:07:02.128Z,9.20
2023-03-25T02:09:28.920Z,5.30
2023-03-25T02:11:55.573Z,8.10
2023-03-25T02:14:23.829Z,7.50
2023-03-25T02:17:09.391Z,9.90
2023-03-25T02:19:46.971Z,6.70
2023-03-25T02:22:37.774Z,9.30
2023-03-25T02:25:13.269Z,6.70
2023-03-25T02:27:47.269Z,6.80
2023-03-25T02:30:30.817Z,6.80
2023-03-25T02:33:07.092Z,6.80
2023-03-25T02:35:53.350Z,9.60
2023-03-25T02:38:21.822Z,6.80
2023-03-25T02:40:55.786Z,7.40
2023-03-25T02:43:45.855Z,6.60
2023-03-25T02:46:15.644Z,6.60
2023-03-25T02:48:48.212Z,6.50
2023-03-25T02:51:18.655Z,9.40
2023-03-25T02:53:47.034Z,9.20
2023-03-25T02:56:15.988Z,9.90
2023-03-25T02:58:44.265Z,9.60
2023-03-25T03:01:14.904Z,10.00
2023-03-25T03:03:41.942Z,8.80
2023-03-25T03:06:09.501Z,7.20
2023-03-25T03:08:47.526Z,5.80
2023-03-25T03:11:14.134Z,5.80
2023-03-25T03:13:43.957Z,8.60
2023-03-25T03:16:25.572Z,5.80
2023-03-25T03:19:11.717Z,5.80
2023-03-25T03:21:51.525Z,5.80
2023-03-25T03:24:27.789Z,5.80
2023-03-25T03:26:55.289Z,5.70
2023-03-25T03:29:27.915Z,5.70
2023-03-25T03:32:05.893Z,5.70
2023-03-25T03:34:44.908Z,5.70
2023-03-25T03:37:13.748Z,5.70
2023-03-25T03:39:41.895Z,7.30
2023-03-25T03:42:20.820Z,8.30
2023-03-25T03:44:50.558Z,5.80
2023-03-25T03:47:29.803Z,7.70
2023-03-25T03:49:58.910Z,5.80
2023-03-25T03:52:28.139Z,5.80
2023-03-25T03:54:57.706Z,5.80
2023-03-25T03:57:27.721Z,8.80
2023-03-25T03:59:57.772Z,9.40
2023-03-25T04:02:30.533Z,5.70
2023-03-25T04:05:00.680Z,5.80
2023-03-25T04:07:39.284Z,8.20
2023-03-25T04:10:15.042Z,5.80
2023-03-25T04:12:44.668Z,5.90
2023-03-25T04:15:12.256Z,5.80
2023-03-25T04:17:39.474Z,7.80
2023-03-25T04:20:11.485Z,8.10
2023-03-25T04:22:38.480Z,5.90
2023-03-25T04:25:06.528Z,5.90
2023-03-25T04:27:33.256Z,5.80
2023-03-25T04:30:01.795Z,8.60
2023-03-25T04:32:28.598Z,3.70
2023-03-25T04:34:57.698Z,5.70
2023-03-25T04:37:25.735Z,5.70
2023-03-25T04:39:53.944Z,8.30
2023-03-25T04:42:20.640Z,8.80
2023-03-25T04:44:47.304Z,5.70
2023-03-25T04:47:16.298Z,5.70
2023-03-25T04:49:45.102Z,9.00
2023-03-25T04:52:11.885Z,7.90
2023-03-25T04:54:38.614Z,7.80
2023-03-25T04:57:05.257Z,8.70
2023-03-25T04:59:31.923Z,8.30
2023-03-25T05:01:58.683Z,7.50
2023-03-25T05:04:25.335Z,8.30
2023-03-25T05:06:52.035Z,7.70
2023-03-25T05:09:19.782Z,5.60
2023-03-25T05:11:46.664Z,8.20
2023-03-25T05:14:14.480Z,9.10
2023-03-25T05:16:41.275Z,8.80
2023-03-25T05:19:10.773Z,6.40
2023-03-25T05:21:38.224Z,5.90
2023-03-25T05:24:08.475Z,8.60
2023-03-25T05:26:35.328Z,5.90
2023-03-25T05:29:05.822Z,6.40
2023-03-25T05:31:32.631Z,6.00
2023-03-25T05:33:59.297Z,6.40
2023-03-25T05:36:26.254Z,6.10
2023-03-25T05:38:56.806Z,8.10
2023-03-25T05:41:32.436Z,9.40
2023-03-25T05:44:00.475Z,7.80
2023-03-25T05:46:28.590Z,8.60
2023-03-25T05:48:57.458Z,6.60
2023-03-25T05:51:25.164Z,6.10
2023-03-25T05:53:51.933Z,8.30
2023-03-25T05:56:23.081Z,6.30
2023-03-25T05:58:51.028Z,8.80
2023-03-25T06:01:32.113Z,9.30
2023-03-25T06:04:01.790Z,8.20
2023-03-25T06:06:29.479Z,8.20
2023-03-25T06:08:56.298Z,9.60
2023-03-25T06:11:25.772Z,3.50
2023-03-25T06:15:00.040Z,9.40
2023-03-25T06:17:57.020Z,6.40
2023-03-25T06:20:23.793Z,6.40
2023-03-25T06:23:13.641Z,9.20
2023-03-25T06:25:40.429Z,6.40
2023-03-25T06:28:07.116Z,6.40
2023-03-25T06:30:33.734Z,9.30
2023-03-25T06:33:03.132Z,8.70
2023-03-25T06:35:30.442Z,9.00
2023-03-25T06:37:57.115Z,8.70
2023-03-25T06:40:24.227Z,9.40
2023-03-25T06:42:51.098Z,9.60
2023-03-25T06:45:18.163Z,8.20
2023-03-25T06:47:45.040Z,9.50
2023-03-25T06:50:11.766Z,9.60
2023-03-25T06:52:38.396Z,8.60
2023-03-25T06:55:05.465Z,9.90
2023-03-25T06:57:32.198Z,6.70
2023-03-25T06:59:58.961Z,9.50
2023-03-25T07:02:25.795Z,9.40
2023-03-25T07:04:52.557Z,9.90
2023-03-25T07:07:19.209Z,10.40
2023-03-25T07:09:45.848Z,9.10
2023-03-25T07:12:12.531Z,10.20
2023-03-25T07:14:39.178Z,7.00
2023-03-25T07:17:06.483Z,9.70
2023-03-25T07:19:33.186Z,9.00
2023-03-25T07:21:59.815Z,9.30
2023-03-25T07:24:26.495Z,7.10
2023-03-25T07:26:53.141Z,9.10
2023-03-25T07:29:19.869Z,9.30
2023-03-25T07:31:46.953Z,7.20
2023-03-25T07:34:13.727Z,7.10
2023-03-25T07:36:43.544Z,10.20
2023-03-25T07:39:10.354Z,9.60
2023-03-25T07:41:37.006Z,9.60
2023-03-25T08:26:17.983Z,7.20
2023-03-25T08:28:44.635Z,7.30
2023-03-25T08:31:11.802Z,7.40
2023-03-25T08:33:41.141Z,7.40
2023-03-25T08:36:10.671Z,9.80
2023-03-25T08:38:37.486Z,7.50
2023-03-25T08:41:04.386Z,7.60
2023-03-25T08:43:31.044Z,7.70
2023-03-25T08:45:57.835Z,10.00
2023-03-25T08:48:24.892Z,10.70
2023-03-25T08:50:51.590Z,10.80
2023-03-25T08:53:18.243Z,10.00
2023-03-25T08:55:44.998Z,9.80
2023-03-25T08:58:11.788Z,10.20
2023-03-25T09:00:38.729Z,8.10
2023-03-25T09:03:05.561Z,10.40
2023-03-25T09:05:32.340Z,10.80
2023-03-25T09:07:59.235Z,12.10
2023-03-25T09:10:26.104Z,10.80
2023-03-25T09:12:52.818Z,11.50
2023-03-25T09:15:19.688Z,12.50
2023-03-25T09:17:46.682Z,10.30
2023-03-25T09:20:13.563Z,10.20
2023-03-25T09:22:40.398Z,11.80
2023-03-25T09:25:07.984Z,11.20
2023-03-25T09:27:34.775Z,7.50
2023-03-25T09:30:01.451Z,11.40
2023-03-25T09:32:28.103Z,9.90
2023-03-25T09:34:54.864Z,11.20
2023-03-25T09:37:21.631Z,10.50
2023-03-25T09:39:48.275Z,9.10
2023-03-25T09:42:28.989Z,10.20
2023-03-25T09:45:17.446Z,8.60
2023-03-25T09:47:59.464Z,8.80
2023-03-25T09:50:27.855Z,9.00
2023-03-25T09:53:00.890Z,8.30
2023-03-25T09:55:29.646Z,8.90
2023-03-25T09:58:00.839Z,10.60
2023-03-25T10:00:27.654Z,11.00
2023-03-25T10:02:54.372Z,9.10
2023-03-25T10:05:21.073Z,11.80
2023-03-25T10:07:59.939Z,12.50
2023-03-25T10:10:32.760Z,9.40
2023-03-25T10:12:59.478Z,9.50
2023-03-25T10:15:58.682Z,11.60
2023-03-25T10:18:44.324Z,9.70
2023-03-25T10:21:29.918Z,9.70
2023-03-25T10:23:58.348Z,9.70
2023-03-25T10:26:42.598Z,7.70
2023-03-25T10:29:18.015Z,9.90
2023-03-25T10:31:54.718Z,10.10
2023-03-25T10:34:27.791Z,10.40
2023-03-25T10:36:57.731Z,12.80
2023-03-25T10:39:25.292Z,12.30
2023-03-25T10:41:55.301Z,12.10
2023-03-25T11:50:47.567Z,10.20
2023-03-25T11:53:16.134Z,10.40
2023-03-25T11:55:47.235Z,13.20
2023-03-25T11:58:18.650Z,10.60
2023-03-25T12:00:53.686Z,13.30
2023-03-25T12:03:23.076Z,10.70
2023-03-25T12:06:10.510Z,12.80
2023-03-25T12:08:48.838Z,10.70
2023-03-25T12:11:22.037Z,10.90
2023-03-25T12:14:15.783Z,11.00
2023-03-25T12:16:52.085Z,11.00
2023-03-25T12:19:32.452Z,11.10
2023-03-25T12:22:09.404Z,11.30
2023-03-25T12:24:43.303Z,11.30
2023-03-25T12:27:16.805Z,11.40
2023-03-25T12:29:58.824Z,11.60
2023-03-25T12:32:39.406Z,11.40
2023-03-25T12:35:21.622Z,14.00
2023-03-25T12:38:00.802Z,10.80
2023-03-25T12:40:33.746Z,10.60
2023-03-25T12:43:04.184Z,10.30
2023-03-25T12:45:44.807Z,12.80
2023-03-25T12:48:17.546Z,9.90
2023-03-25T12:51:01.787Z,11.60
2023-03-25T12:53:42.163Z,10.30
2023-03-25T12:56:27.650Z,10.60
2023-03-25T12:59:03.497Z,10.60
2023-03-25T13:01:34.070Z,10.50
2023-03-25T13:04:12.881Z,10.60
2023-03-25T13:06:46.188Z,10.50
2023-03-25T13:09:18.658Z,10.50
2023-03-25T13:11:57.238Z,10.40
2023-03-25T13:14:35.654Z,10.30
2023-03-25T13:17:04.453Z,12.60
2023-03-25T13:19:34.710Z,10.50
2023-03-25T13:22:05.911Z,10.60
2023-03-25T13:24:38.093Z,12.30
2023-03-25T13:27:05.241Z,10.20
2023-03-25T13:29:41.199Z,8.10
2023-03-25T13:32:28.473Z,10.30
2023-03-25T13:34:57.621Z,12.30
2023-03-25T13:37:26.228Z,10.70
2023-03-25T13:39:56.218Z,12.70
2023-03-25T13:42:26.758Z,10.70
2023-03-25T13:44:56.263Z,12.60
2023-03-25T13:47:31.061Z,12.90
2023-03-25T13:50:04.379Z,11.00
2023-03-25T13:52:34.812Z,10.90
2023-03-25T13:55:05.138Z,11.00
2023-03-25T13:57:46.253Z,11.10
2023-03-25T14:00:25.357Z,11.20
2023-03-25T14:03:02.563Z,11.30
2023-03-25T14:05:29.746Z,11.40
2023-03-25T14:08:10.308Z,11.30
2023-03-25T14:10:48.414Z,11.60
2023-03-25T14:13:17.776Z,11.50
2023-03-25T14:15:52.015Z,12.00
2023-03-25T14:18:19.669Z,13.40
2023-03-25T14:20:46.959Z,11.70
2023-03-25T14:23:17.149Z,13.10
2023-03-25T14:25:46.658Z,11.00
2023-03-25T14:28:18.533Z,11.20
2023-03-25T14:31:05.250Z,11.10
2023-03-25T14:33:50.833Z,11.20
2023-03-25T14:36:17.481Z,11.00
2023-03-25T14:38:54.489Z,12.30
2023-03-25T14:41:41.293Z,11.00
2023-03-25T14:44:19.304Z,12.20
2023-03-25T14:46:46.498Z,11.10
2023-03-25T14:49:21.845Z,13.10
2023-03-25T14:55:29.411Z,11.10
2023-03-25T14:57:58.817Z,11.30
2023-03-25T15:00:41.246Z,13.80
2023-03-25T15:03:18.178Z,11.10
2023-03-25T15:05:57.573Z,11.10
2023-03-25T15:08:38.762Z,13.90
2023-03-25T15:11:06.299Z,14.20
2023-03-25T15:13:38.492Z,10.70
2023-03-25T15:16:06.843Z,11.10
2023-03-25T15:18:40.784Z,10.50
2023-03-25T15:21:11.484Z,9.90
2023-03-25T15:23:46.919Z,10.40
2023-03-25T15:26:32.515Z,10.40
2023-03-25T15:29:22.590Z,10.40
2023-03-25T15:32:01.622Z,10.40
2023-03-25T15:34:34.695Z,7.20
2023-03-25T15:37:09.155Z,10.40
2023-03-25T15:39:45.513Z,10.40
2023-03-25T15:42:12.468Z,10.40
2023-03-25T15:44:42.140Z,12.50
2023-03-25T15:47:10.180Z,10.50
2023-03-25T15:49:56.374Z,10.50
2023-03-25T15:52:23.697Z,10.50
2023-03-25T15:55:13.635Z,10.70
2023-03-25T15:57:44.912Z,10.20
2023-03-25T16:00:17.138Z,13.80
2023-03-25T16:03:02.499Z,10.70
2023-03-25T16:05:33.998Z,10.30
2023-03-25T16:08:05.799Z,13.20
2023-03-25T16:10:36.463Z,13.10
2023-03-25T16:13:04.418Z,13.80
2023-03-25T16:15:36.183Z,12.10
2023-03-25T16:18:06.819Z,11.40
2023-03-25T16:20:34.879Z,10.20
2023-03-25T16:23:03.278Z,11.30
2023-03-25T16:25:40.096Z,13.00
2023-03-25T16:28:13.083Z,7.60
2023-03-25T16:30:43.269Z,13.60
2023-03-25T16:33:13.823Z,10.20
2023-03-25T16:35:57.538Z,12.80
2023-03-25T16:38:25.606Z,12.90
2023-03-25T16:40:57.836Z,11.90
2023-03-25T16:43:31.662Z,13.50
2023-03-25T16:46:00.350Z,10.10
2023-03-25T16:48:34.521Z,12.00
2023-03-25T16:51:20.210Z,10.00
2023-03-25T16:53:49.672Z,10.10
2023-03-25T16:56:16.461Z,13.40
2023-03-25T16:58:58.173Z,12.50
2023-03-25T17:01:25.525Z,10.10
2023-03-25T17:03:53.869Z,12.30
2023-03-25T17:06:28.726Z,10.10
2023-03-25T17:08:56.640Z,10.10
2023-03-25T17:11:26.996Z,12.20
2023-03-25T17:14:02.440Z,9.90
2023-03-25T17:16:31.596Z,9.80
2023-03-25T17:18:59.703Z,12.20
2023-03-25T17:21:28.877Z,11.20
2023-03-25T17:23:56.594Z,12.30
2023-03-25T17:26:25.438Z,10.40
2023-03-25T17:28:58.184Z,9.50
2023-03-25T17:31:25.118Z,9.40
2023-03-25T17:33:53.094Z,9.30
2023-03-25T17:36:20.831Z,9.20
2023-03-25T17:38:48.584Z,9.20
2023-03-25T17:41:16.864Z,9.20
2023-03-25T17:58:05.448Z,8.80
2023-03-25T18:08:03.366Z,8.50
2023-03-25T18:39:10.872Z,7.60
2023-03-25T18:46:00.055Z,7.50
2023-03-25T18:48:49.946Z,7.50
2023-03-25T18:51:58.998Z,7.40
2023-03-25T18:54:26.115Z,7.50
2023-03-25T18:57:18.073Z,7.40
2023-03-25T18:59:52.853Z,7.30
2023-03-25T19:02:27.674Z,7.30
2023-03-25T20:10:44.165Z,6.90
2023-03-25T20:13:10.792Z,7.30
2023-03-25T20:15:37.392Z,6.90
2023-03-25T20:18:04.105Z,6.90
2023-03-25T20:20:30.863Z,6.90
2023-03-25T20:22:57.451Z,6.90
2023-03-25T20:25:24.100Z,6.80
2023-03-25T20:27:51.618Z,6.80
2023-03-25T20:30:19.253Z,6.70
2023-03-25T20:32:48.500Z,6.70
2023-03-25T20:35:16.239Z,6.70
2023-03-25T20:37:43.579Z,6.60
2023-03-25T20:40:11.699Z,8.10
2023-03-25T20:42:39.619Z,6.50
2023-03-25T20:45:06.653Z,8.80
2023-03-25T20:47:33.305Z,6.40
2023-03-25T20:50:00.125Z,7.60
2023-03-25T20:52:28.833Z,6.40
2023-03-25T20:54:55.674Z,6.40
2023-03-25T20:57:22.363Z,6.50
2023-03-25T20:59:49.004Z,6.50
2023-03-25T21:02:16.946Z,6.60
2023-03-25T21:04:43.582Z,7.90
2023-03-25T21:07:10.295Z,6.60
2023-03-25T21:09:37.253Z,6.70
2023-03-25T21:12:04.031Z,6.60
2023-03-25T21:14:30.580Z,6.60
2023-03-25T21:16:57.793Z,6.60
2023-03-25T21:19:25.121Z,6.70
2023-03-25T21:21:51.691Z,6.60
2023-03-25T21:24:21.612Z,6.60
2023-03-25T21:26:49.117Z,6.70
2023-03-25T21:29:15.723Z,6.70
2023-03-25T21:31:42.622Z,6.70
2023-03-25T21:34:09.890Z,6.80
2023-03-25T21:36:36.590Z,6.70
2023-03-25T21:39:04.508Z,6.70
2023-03-25T21:41:31.199Z,6.60
2023-03-25T21:43:57.841Z,6.60
2023-03-25T21:46:27.385Z,6.50
2023-03-25T21:48:54.846Z,6.50
2023-03-25T21:51:21.487Z,6.40
2023-03-25T21:53:48.120Z,6.40
2023-03-25T21:56:20.124Z,6.40
2023-03-25T21:58:47.534Z,6.40
2023-03-25T22:01:16.813Z,7.90
2023-03-25T22:03:46.593Z,6.40
2023-03-25T22:06:18.225Z,6.40
2023-03-25T22:08:45.442Z,6.40
2023-03-25T22:11:22.666Z,6.40
2023-03-25T22:13:49.303Z,6.20
2023-03-25T22:16:17.028Z,6.40
2023-03-25T22:18:44.090Z,6.40
2023-03-25T22:21:10.726Z,6.40
2023-03-25T22:23:37.617Z,6.40
2023-03-25T22:26:04.386Z,6.30
2023-03-25T22:28:31.155Z,6.30
2023-03-25T22:30:57.941Z,6.40
2023-03-25T22:33:24.664Z,6.40
2023-03-25T22:35:51.434Z,6.40
2023-03-25T22:38:18.642Z,6.40
2023-03-25T22:40:45.258Z,6.40
2023-03-25T22:43:12.228Z,6.40
2023-03-25T22:45:38.849Z,6.30
2023-03-25T22:48:05.625Z,6.10
2023-03-25T22:50:32.302Z,6.10
2023-03-25T22:52:58.997Z,6.00
2023-03-25T22:55:25.671Z,6.00
2023-03-25T22:57:52.338Z,6.00
2023-03-25T23:00:18.967Z,5.90
2023-03-25T23:02:46.844Z,8.30
2023-03-25T23:05:14.791Z,5.80
2023-03-25T23:07:41.446Z,5.70
2023-03-25T23:10:09.034Z,5.70
2023-03-25T23:12:35.809Z,5.60
2023-03-25T23:15:02.459Z,5.60
2023-03-25T23:17:29.160Z,5.60
2023-03-25T23:19:56.065Z,5.60
2023-03-25T23:22:22.701Z,5.60
2023-03-25T23:24:49.342Z,5.70
2023-03-25T23:27:16.250Z,5.80
2023-03-25T23:29:45.919Z,5.80
2023-03-25T23:32:12.574Z,5.80
2023-03-25T23:34:40.066Z,5.80
2023-03-25T23:37:09.320Z,5.90
2023-03-25T23:39:36.588Z,5.90
2023-03-25T23:42:03.330Z,5.90
2023-03-25T23:44:30.168Z,5.90
2023-03-25T23:46:56.995Z,5.90
2023-03-25T23:49:23.594Z,6.00
2023-03-25T23:51:51.152Z,6.00
2023-03-25T23:54:19.469Z,6.10
2023-03-25T23:56:46.270Z,6.10
2023-03-25T23:59:12.993Z,6.00
